Lamberton, Pennsylvania
Current Conditions -  °F | °C
As of 7:53 PM on Saturday 25 Oct 2014 (Local Time) from KMGW Reporting Station
Clear Clear  
Wind Chill: 63°   Ceiling: Unl
Heat Index: 63°   Visibility: 10mi
Dew Point: 48°   Wind: 7mph
Humidity: 58%   Direction: 220°SW
Pressure: 29.83"   Gusts: NA
Location:  39.8879°N, 79.8634°W
Report Text: KMGW 252353Z 22006KT 10SM CLR 17/09 A2983 RMK AO2 SLP099 T01720089 10200 20172 53001
Loading
Personal Weather Stations






























Interactive Weather Map
Tropical Storm Tracking
New forecast layout! Learn more

10-Day Weather Forecast

Advertisements
Track Severe Weather on mobile